sensor_id;sensor_type;location;lat;lon;timestamp;temperature;humidity
3778;DHT22;1904;50.076;8.660;2023-03-02T00:02:04;2.20;1.00
3778;DHT22;1904;50.076;8.660;2023-03-02T00:04:40;2.20;1.00
3778;DHT22;1904;50.076;8.660;2023-03-02T00:07:28;2.10;1.00
3778;DHT22;1904;50.076;8.660;2023-03-02T00:09:56;2.10;1.00
3778;DHT22;1904;50.076;8.660;2023-03-02T00:12:26;2.10;1.00
3778;DHT22;1904;50.076;8.660;2023-03-02T00:14:52;2.10;1.00
3778;DHT22;1904;50.076;8.660;2023-03-02T00:17:18;2.10;1.00
3778;DHT22;1904;50.076;8.660;2023-03-02T00:19:53;2.00;1.00
3778;DHT22;1904;50.076;8.660;2023-03-02T00:22:19;2.10;1.00
3778;DHT22;1904;50.076;8.660;2023-03-02T00:24:48;2.10;1.00
3778;DHT22;1904;50.076;8.660;2023-03-02T00:40:35;2.10;1.00
3778;DHT22;1904;50.076;8.660;2023-03-02T00:49:45;2.00;1.00
3778;DHT22;1904;50.076;8.660;2023-03-02T00:52:24;2.10;1.00
3778;DHT22;1904;50.076;8.660;2023-03-02T00:58:36;2.00;1.00
3778;DHT22;1904;50.076;8.660;2023-03-02T01:08:05;1.90;1.00
3778;DHT22;1904;50.076;8.660;2023-03-02T01:11:11;1.80;1.00
3778;DHT22;1904;50.076;8.660;2023-03-02T01:13:59;1.80;1.00
3778;DHT22;1904;50.076;8.660;2023-03-02T01:22:54;1.90;1.00
3778;DHT22;1904;50.076;8.660;2023-03-02T01:25:24;1.80;1.00
3778;DHT22;1904;50.076;8.660;2023-03-02T01:27:54;1.80;1.00
3778;DHT22;1904;50.076;8.660;2023-03-02T01:30:30;1.80;1.00
3778;DHT22;1904;50.076;8.660;2023-03-02T01:32:55;1.80;1.00
3778;DHT22;1904;50.076;8.660;2023-03-02T01:35:21;1.80;1.00
3778;DHT22;1904;50.076;8.660;2023-03-02T01:37:47;1.80;1.00
3778;DHT22;1904;50.076;8.660;2023-03-02T01:40:18;1.80;1.00
3778;DHT22;1904;50.076;8.660;2023-03-02T01:43:09;1.80;1.00
3778;DHT22;1904;50.076;8.660;2023-03-02T01:46:07;1.70;1.00
3778;DHT22;1904;50.076;8.660;2023-03-02T01:49:06;1.70;1.00
3778;DHT22;1904;50.076;8.660;2023-03-02T01:51:41;1.70;1.00
3778;DHT22;1904;50.076;8.660;2023-03-02T01:57:18;1.70;1.00
3778;DHT22;1904;50.076;8.660;2023-03-02T01:59:58;1.70;1.00
3778;DHT22;1904;50.076;8.660;2023-03-02T02:02:36;1.70;1.00
3778;DHT22;1904;50.076;8.660;2023-03-02T02:05:11;1.70;1.00
3778;DHT22;1904;50.076;8.660;2023-03-02T02:07:42;1.70;1.00
3778;DHT22;1904;50.076;8.660;2023-03-02T02:10:09;1.70;1.00
3778;DHT22;1904;50.076;8.660;2023-03-02T02:12:35;1.70;1.00
3778;DHT22;1904;50.076;8.660;2023-03-02T02:15:01;1.70;1.00
3778;DHT22;1904;50.076;8.660;2023-03-02T02:17:29;1.70;1.00
3778;DHT22;1904;50.076;8.660;2023-03-02T02:25:18;1.70;1.00
3778;DHT22;1904;50.076;8.660;2023-03-02T02:34:46;1.50;1.00
3778;DHT22;1904;50.076;8.660;2023-03-02T02:41:06;1.50;1.00
3778;DHT22;1904;50.076;8.660;2023-03-02T02:43:36;1.50;1.00
3778;DHT22;1904;50.076;8.660;2023-03-02T02:46:02;1.50;1.00
3778;DHT22;1904;50.076;8.660;2023-03-02T02:48:30;1.50;1.00
3778;DHT22;1904;50.076;8.660;2023-03-02T02:51:08;1.50;1.00
3778;DHT22;1904;50.076;8.660;2023-03-02T02:53:52;1.50;1.00
3778;DHT22;1904;50.076;8.660;2023-03-02T02:56:33;1.50;1.00
3778;DHT22;1904;50.076;8.660;2023-03-02T02:59:36;1.50;1.00
3778;DHT22;1904;50.076;8.660;2023-03-02T03:02:36;1.50;1.00
3778;DHT22;1904;50.076;8.660;2023-03-02T03:05:41;1.50;1.00
3778;DHT22;1904;50.076;8.660;2023-03-02T03:11:19;1.40;1.00
3778;DHT22;1904;50.076;8.660;2023-03-02T03:13:53;1.40;1.00
3778;DHT22;1904;50.076;8.660;2023-03-02T03:16:40;1.40;1.00
3778;DHT22;1904;50.076;8.660;2023-03-02T03:19:14;1.30;1.00
3778;DHT22;1904;50.076;8.660;2023-03-02T03:21:42;1.30;1.00
3778;DHT22;1904;50.076;8.660;2023-03-02T03:24:12;1.30;1.00
3778;DHT22;1904;50.076;8.660;2023-03-02T03:26:55;1.20;1.00
3778;DHT22;1904;50.076;8.660;2023-03-02T03:29:39;1.30;1.00
3778;DHT22;1904;50.076;8.660;2023-03-02T03:32:06;1.30;1.00
3778;DHT22;1904;50.076;8.660;2023-03-02T03:44:20;1.40;1.00
3778;DHT22;1904;50.076;8.660;2023-03-02T03:47:00;1.30;1.00
3778;DHT22;1904;50.076;8.660;2023-03-02T03:49:36;1.30;1.00
3778;DHT22;1904;50.076;8.660;2023-03-02T03:52:12;1.30;1.00
3778;DHT22;1904;50.076;8.660;2023-03-02T03:54:38;1.30;1.00
3778;DHT22;1904;50.076;8.660;2023-03-02T03:57:30;1.30;1.00
3778;DHT22;1904;50.076;8.660;2023-03-02T04:00:09;1.20;1.00
3778;DHT22;1904;50.076;8.660;2023-03-02T04:02:36;1.20;1.00
3778;DHT22;1904;50.076;8.660;2023-03-02T04:05:07;1.20;1.00
3778;DHT22;1904;50.076;8.660;2023-03-02T04:07:37;1.10;1.00
3778;DHT22;1904;50.076;8.660;2023-03-02T04:13:36;1.20;1.00
3778;DHT22;1904;50.076;8.660;2023-03-02T04:16:06;1.10;1.00
3778;DHT22;1904;50.076;8.660;2023-03-02T04:18:36;1.20;1.00
3778;DHT22;1904;50.076;8.660;2023-03-02T04:21:06;1.20;1.00
3778;DHT22;1904;50.076;8.660;2023-03-02T04:23:36;1.10;1.00
3778;DHT22;1904;50.076;8.660;2023-03-02T04:26:06;1.20;1.00
3778;DHT22;1904;50.076;8.660;2023-03-02T04:28:42;1.20;1.00
3778;DHT22;1904;50.076;8.660;2023-03-02T04:31:36;1.10;1.00
3778;DHT22;1904;50.076;8.660;2023-03-02T04:34:07;1.20;1.00
3778;DHT22;1904;50.076;8.660;2023-03-02T04:37:06;1.20;1.00
3778;DHT22;1904;50.076;8.660;2023-03-02T04:39:36;1.20;1.00
3778;DHT22;1904;50.076;8.660;2023-03-02T04:42:36;1.20;1.00
3778;DHT22;1904;50.076;8.660;2023-03-02T04:45:36;1.20;1.00
3778;DHT22;1904;50.076;8.660;2023-03-02T04:48:01;1.20;1.00
3778;DHT22;1904;50.076;8.660;2023-03-02T04:50:36;1.10;1.00
3778;DHT22;1904;50.076;8.660;2023-03-02T04:53:06;1.10;1.00
3778;DHT22;1904;50.076;8.660;2023-03-02T04:55:32;1.10;1.00
3778;DHT22;1904;50.076;8.660;2023-03-02T04:58:07;1.00;1.00
3778;DHT22;1904;50.076;8.660;2023-03-02T05:01:06;1.00;1.00
3778;DHT22;1904;50.076;8.660;2023-03-02T05:03:36;1.10;1.00
3778;DHT22;1904;50.076;8.660;2023-03-02T05:06:07;1.00;1.00
3778;DHT22;1904;50.076;8.660;2023-03-02T05:08:36;1.00;1.00
3778;DHT22;1904;50.076;8.660;2023-03-02T05:11:07;1.00;1.00
3778;DHT22;1904;50.076;8.660;2023-03-02T05:13:36;1.00;1.00
3778;DHT22;1904;50.076;8.660;2023-03-02T05:16:06;1.00;1.00
3778;DHT22;1904;50.076;8.660;2023-03-02T05:18:36;1.00;1.00
3778;DHT22;1904;50.076;8.660;2023-03-02T05:21:06;1.00;1.00
3778;DHT22;1904;50.076;8.660;2023-03-02T05:23:36;1.10;1.00
3778;DHT22;1904;50.076;8.660;2023-03-02T05:26:02;1.10;1.00
3778;DHT22;1904;50.076;8.660;2023-03-02T05:28:40;1.00;1.00
3778;DHT22;1904;50.076;8.660;2023-03-02T05:31:06;1.10;1.00
3778;DHT22;1904;50.076;8.660;2023-03-02T05:33:36;1.10;1.00
3778;DHT22;1904;50.076;8.660;2023-03-02T05:36:06;1.10;1.00
3778;DHT22;1904;50.076;8.660;2023-03-02T05:38:54;1.10;1.00
3778;DHT22;1904;50.076;8.660;2023-03-02T05:44:36;1.10;1.00
3778;DHT22;1904;50.076;8.660;2023-03-02T05:47:06;1.20;1.00
3778;DHT22;1904;50.076;8.660;2023-03-02T05:49:36;1.20;1.00
3778;DHT22;1904;50.076;8.660;2023-03-02T05:52:06;1.20;1.00
3778;DHT22;1904;50.076;8.660;2023-03-02T05:54:32;1.20;1.00
3778;DHT22;1904;50.076;8.660;2023-03-02T05:57:06;1.20;1.00
3778;DHT22;1904;50.076;8.660;2023-03-02T05:59:32;1.20;1.00
3778;DHT22;1904;50.076;8.660;2023-03-02T06:05:18;1.20;1.00
3778;DHT22;1904;50.076;8.660;2023-03-02T06:07:54;1.30;1.00
3778;DHT22;1904;50.076;8.660;2023-03-02T06:10:36;1.20;1.00
3778;DHT22;1904;50.076;8.660;2023-03-02T06:20:12;1.20;1.00
3778;DHT22;1904;50.076;8.660;2023-03-02T06:29:22;1.10;1.00
3778;DHT22;1904;50.076;8.660;2023-03-02T06:32:12;1.10;1.00
3778;DHT22;1904;50.076;8.660;2023-03-02T06:34:49;1.20;1.00
3778;DHT22;1904;50.076;8.660;2023-03-02T06:37:31;1.30;1.00
3778;DHT22;1904;50.076;8.660;2023-03-02T06:40:07;1.30;1.00
3778;DHT22;1904;50.076;8.660;2023-03-02T06:42:34;1.20;1.00
3778;DHT22;1904;50.076;8.660;2023-03-02T06:45:00;1.30;1.00
3778;DHT22;1904;50.076;8.660;2023-03-02T06:47:30;1.40;1.00
3778;DHT22;1904;50.076;8.660;2023-03-02T06:50:07;1.40;1.00
3778;DHT22;1904;50.076;8.660;2023-03-02T06:52:54;1.50;1.00
3778;DHT22;1904;50.076;8.660;2023-03-02T06:55:19;1.60;1.00
3778;DHT22;1904;50.076;8.660;2023-03-02T06:57:48;1.60;1.00
3778;DHT22;1904;50.076;8.660;2023-03-02T07:00:14;1.70;1.00
3778;DHT22;1904;50.076;8.660;2023-03-02T07:02:45;1.80;1.00
3778;DHT22;1904;50.076;8.660;2023-03-02T07:05:12;1.80;1.00
3778;DHT22;1904;50.076;8.660;2023-03-02T07:07:38;1.90;1.00
3778;DHT22;1904;50.076;8.660;2023-03-02T07:10:07;1.90;1.00
3778;DHT22;1904;50.076;8.660;2023-03-02T07:12:48;2.00;1.00
3778;DHT22;1904;50.076;8.660;2023-03-02T07:15:14;2.00;1.00
3778;DHT22;1904;50.076;8.660;2023-03-02T07:17:42;2.10;1.00
3778;DHT22;1904;50.076;8.660;2023-03-02T07:20:10;2.20;1.00
3778;DHT22;1904;50.076;8.660;2023-03-02T07:22:36;2.30;1.00
3778;DHT22;1904;50.076;8.660;2023-03-02T07:25:02;2.30;1.00
3778;DHT22;1904;50.076;8.660;2023-03-02T07:27:28;2.30;1.00
3778;DHT22;1904;50.076;8.660;2023-03-02T07:29:53;2.40;1.00
3778;DHT22;1904;50.076;8.660;2023-03-02T07:32:24;2.50;1.00
3778;DHT22;1904;50.076;8.660;2023-03-02T07:34:50;2.60;1.00
3778;DHT22;1904;50.076;8.660;2023-03-02T07:37:16;2.70;1.00
3778;DHT22;1904;50.076;8.660;2023-03-02T07:40:00;2.80;1.00
3778;DHT22;1904;50.076;8.660;2023-03-02T07:42:26;2.90;1.00
3778;DHT22;1904;50.076;8.660;2023-03-02T07:44:54;2.90;1.00
3778;DHT22;1904;50.076;8.660;2023-03-02T07:47:36;3.00;1.00
3778;DHT22;1904;50.076;8.660;2023-03-02T07:50:18;3.00;1.00
3778;DHT22;1904;50.076;8.660;2023-03-02T07:53:06;3.10;1.00
3778;DHT22;1904;50.076;8.660;2023-03-02T07:56:07;3.20;1.00
3778;DHT22;1904;50.076;8.660;2023-03-02T07:58:37;3.30;1.00
3778;DHT22;1904;50.076;8.660;2023-03-02T08:01:06;3.40;1.00
3778;DHT22;1904;50.076;8.660;2023-03-02T08:03:36;3.50;1.00
3778;DHT22;1904;50.076;8.660;2023-03-02T08:06:36;3.60;1.00
3778;DHT22;1904;50.076;8.660;2023-03-02T08:09:06;3.70;1.00
3778;DHT22;1904;50.076;8.660;2023-03-02T08:11:36;3.70;1.00
3778;DHT22;1904;50.076;8.660;2023-03-02T08:14:02;3.80;1.00
3778;DHT22;1904;50.076;8.660;2023-03-02T08:16:29;3.90;1.00
3778;DHT22;1904;50.076;8.660;2023-03-02T08:18:55;3.90;1.00
3778;DHT22;1904;50.076;8.660;2023-03-02T08:21:23;4.00;1.00
3778;DHT22;1904;50.076;8.660;2023-03-02T08:23:50;4.20;1.00
3778;DHT22;1904;50.076;8.660;2023-03-02T08:26:36;4.20;1.00
3778;DHT22;1904;50.076;8.660;2023-03-02T08:29:04;4.30;1.00
3778;DHT22;1904;50.076;8.660;2023-03-02T08:31:29;4.40;1.00
3778;DHT22;1904;50.076;8.660;2023-03-02T08:34:06;4.40;1.00
3778;DHT22;1904;50.076;8.660;2023-03-02T08:36:38;4.50;1.00
3778;DHT22;1904;50.076;8.660;2023-03-02T08:39:06;4.60;1.00
3778;DHT22;1904;50.076;8.660;2023-03-02T08:41:36;4.60;1.00
3778;DHT22;1904;50.076;8.660;2023-03-02T08:44:02;4.80;1.00
3778;DHT22;1904;50.076;8.660;2023-03-02T08:46:30;4.80;1.00
3778;DHT22;1904;50.076;8.660;2023-03-02T08:48:56;4.90;1.00
3778;DHT22;1904;50.076;8.660;2023-03-02T08:51:23;5.00;1.00
3778;DHT22;1904;50.076;8.660;2023-03-02T08:54:01;5.00;1.00
3778;DHT22;1904;50.076;8.660;2023-03-02T08:57:00;5.10;1.00
3778;DHT22;1904;50.076;8.660;2023-03-02T09:02:48;5.30;1.00
3778;DHT22;1904;50.076;8.660;2023-03-02T09:05:17;5.40;1.00
3778;DHT22;1904;50.076;8.660;2023-03-02T09:08:01;5.50;1.00
3778;DHT22;1904;50.076;8.660;2023-03-02T09:10:27;5.60;1.00
3778;DHT22;1904;50.076;8.660;2023-03-02T09:13:24;5.60;1.00
3778;DHT22;1904;50.076;8.660;2023-03-02T09:15:54;5.70;1.00
3778;DHT22;1904;50.076;8.660;2023-03-02T09:35:09;6.40;1.00
3778;DHT22;1904;50.076;8.660;2023-03-02T09:53:27;6.90;1.00
3778;DHT22;1904;50.076;8.660;2023-03-02T09:56:16;7.00;1.00
3778;DHT22;1904;50.076;8.660;2023-03-02T09:58:51;7.10;1.00
3778;DHT22;1904;50.076;8.660;2023-03-02T10:01:27;7.10;1.00
3778;DHT22;1904;50.076;8.660;2023-03-02T10:03:59;7.20;1.00
3778;DHT22;1904;50.076;8.660;2023-03-02T10:06:55;7.40;1.00
3778;DHT22;1904;50.076;8.660;2023-03-02T10:09:22;7.60;1.00
3778;DHT22;1904;50.076;8.660;2023-03-02T10:12:13;7.60;1.00
3778;DHT22;1904;50.076;8.660;2023-03-02T10:27:15;8.00;1.00
3778;DHT22;1904;50.076;8.660;2023-03-02T10:33:11;8.20;1.00
3778;DHT22;1904;50.076;8.660;2023-03-02T10:55:48;9.10;1.00
3778;DHT22;1904;50.076;8.660;2023-03-02T11:01:35;9.10;1.00
3778;DHT22;1904;50.076;8.660;2023-03-02T11:07:30;9.40;1.00
3778;DHT22;1904;50.076;8.660;2023-03-02T11:16:26;9.60;1.00
3778;DHT22;1904;50.076;8.660;2023-03-02T11:19:23;9.80;1.00
3778;DHT22;1904;50.076;8.660;2023-03-02T11:25:15;9.90;1.00
3778;DHT22;1904;50.076;8.660;2023-03-02T11:31:10;10.10;1.00
3778;DHT22;1904;50.076;8.660;2023-03-02T11:37:22;10.20;1.00
3778;DHT22;1904;50.076;8.660;2023-03-02T11:43:11;10.40;1.00
3778;DHT22;1904;50.076;8.660;2023-03-02T11:46:01;10.60;1.00
3778;DHT22;1904;50.076;8.660;2023-03-02T11:51:59;10.80;1.00
3778;DHT22;1904;50.076;8.660;2023-03-02T12:01:17;11.10;1.00
3778;DHT22;1904;50.076;8.660;2023-03-02T12:14:02;11.30;1.00
3778;DHT22;1904;50.076;8.660;2023-03-02T12:20:20;11.50;1.00
3778;DHT22;1904;50.076;8.660;2023-03-02T12:32:35;11.90;1.00
3778;DHT22;1904;50.076;8.660;2023-03-02T12:45:10;12.20;1.00
3778;DHT22;1904;50.076;8.660;2023-03-02T12:48:18;12.20;1.00
3778;DHT22;1904;50.076;8.660;2023-03-02T12:54:30;12.30;1.00
3778;DHT22;1904;50.076;8.660;2023-03-02T12:57:14;12.40;1.00
3778;DHT22;1904;50.076;8.660;2023-03-02T13:03:02;12.40;1.00
3778;DHT22;1904;50.076;8.660;2023-03-02T13:05:43;12.50;1.00
3778;DHT22;1904;50.076;8.660;2023-03-02T13:11:34;12.60;1.00
3778;DHT22;1904;50.076;8.660;2023-03-02T13:14:01;12.60;1.00
3778;DHT22;1904;50.076;8.660;2023-03-02T13:26:31;12.70;1.00
3778;DHT22;1904;50.076;8.660;2023-03-02T13:32:37;12.70;1.00
3778;DHT22;1904;50.076;8.660;2023-03-02T13:35:36;12.70;1.00
3778;DHT22;1904;50.076;8.660;2023-03-02T13:44:46;13.00;1.00
3778;DHT22;1904;50.076;8.660;2023-03-02T13:47:42;13.00;1.00
3778;DHT22;1904;50.076;8.660;2023-03-02T13:50:21;12.90;1.00
3778;DHT22;1904;50.076;8.660;2023-03-02T13:53:12;12.80;1.00
3778;DHT22;1904;50.076;8.660;2023-03-02T13:56:12;12.70;1.00
3778;DHT22;1904;50.076;8.660;2023-03-02T14:04:56;13.10;1.00
3778;DHT22;1904;50.076;8.660;2023-03-02T14:07:22;13.30;1.00
3778;DHT22;1904;50.076;8.660;2023-03-02T14:09:47;13.30;1.00
3778;DHT22;1904;50.076;8.660;2023-03-02T14:12:25;13.30;1.00
3778;DHT22;1904;50.076;8.660;2023-03-02T14:14:52;13.30;1.00
3778;DHT22;1904;50.076;8.660;2023-03-02T14:17:22;13.40;1.00
3778;DHT22;1904;50.076;8.660;2023-03-02T14:19:49;13.50;1.00
3778;DHT22;1904;50.076;8.660;2023-03-02T14:22:26;13.60;1.00
3778;DHT22;1904;50.076;8.660;2023-03-02T14:24:54;13.60;1.00
3778;DHT22;1904;50.076;8.660;2023-03-02T14:27:28;13.50;1.00
3778;DHT22;1904;50.076;8.660;2023-03-02T14:29:54;13.40;1.00
3778;DHT22;1904;50.076;8.660;2023-03-02T14:32:19;13.50;1.00
3778;DHT22;1904;50.076;8.660;2023-03-02T14:34:45;13.50;1.00
3778;DHT22;1904;50.076;8.660;2023-03-02T14:37:13;13.50;1.00
3778;DHT22;1904;50.076;8.660;2023-03-02T14:39:42;13.60;1.00
3778;DHT22;1904;50.076;8.660;2023-03-02T14:42:18;13.60;1.00
3778;DHT22;1904;50.076;8.660;2023-03-02T14:44:46;13.60;1.00
3778;DHT22;1904;50.076;8.660;2023-03-02T14:47:12;13.50;1.00
3778;DHT22;1904;50.076;8.660;2023-03-02T14:49:38;13.60;1.00
3778;DHT22;1904;50.076;8.660;2023-03-02T14:52:10;13.50;1.00
3778;DHT22;1904;50.076;8.660;2023-03-02T14:54:58;13.50;1.00
3778;DHT22;1904;50.076;8.660;2023-03-02T14:57:27;13.40;1.00
3778;DHT22;1904;50.076;8.660;2023-03-02T14:59:54;13.40;1.00
3778;DHT22;1904;50.076;8.660;2023-03-02T15:02:21;13.40;1.00
3778;DHT22;1904;50.076;8.660;2023-03-02T15:04:47;13.30;1.00
3778;DHT22;1904;50.076;8.660;2023-03-02T15:07:16;13.30;1.00
3778;DHT22;1904;50.076;8.660;2023-03-02T15:09:42;13.30;1.00
3778;DHT22;1904;50.076;8.660;2023-03-02T15:12:09;13.30;1.00
3778;DHT22;1904;50.076;8.660;2023-03-02T15:14:35;13.30;1.00
3778;DHT22;1904;50.076;8.660;2023-03-02T15:17:01;13.30;1.00
3778;DHT22;1904;50.076;8.660;2023-03-02T15:19:27;13.30;1.00
3778;DHT22;1904;50.076;8.660;2023-03-02T15:21:53;13.20;1.00
3778;DHT22;1904;50.076;8.660;2023-03-02T15:24:18;13.20;1.00
3778;DHT22;1904;50.076;8.660;2023-03-02T15:26:51;13.20;1.00
3778;DHT22;1904;50.076;8.660;2023-03-02T15:29:18;13.30;1.00
3778;DHT22;1904;50.076;8.660;2023-03-02T15:31:44;13.20;1.00
3778;DHT22;1904;50.076;8.660;2023-03-02T15:34:10;13.10;1.00
3778;DHT22;1904;50.076;8.660;2023-03-02T15:36:36;13.10;1.00
3778;DHT22;1904;50.076;8.660;2023-03-02T15:39:02;13.20;1.00
3778;DHT22;1904;50.076;8.660;2023-03-02T15:41:27;13.20;1.00
3778;DHT22;1904;50.076;8.660;2023-03-02T15:43:54;13.20;1.00
3778;DHT22;1904;50.076;8.660;2023-03-02T15:46:20;13.20;1.00
3778;DHT22;1904;50.076;8.660;2023-03-02T15:48:47;13.30;1.00
3778;DHT22;1904;50.076;8.660;2023-03-02T15:51:13;13.40;1.00
3778;DHT22;1904;50.076;8.660;2023-03-02T15:53:39;13.70;1.00
3778;DHT22;1904;50.076;8.660;2023-03-02T15:56:10;14.00;1.00
3778;DHT22;1904;50.076;8.660;2023-03-02T15:58:38;14.40;1.00
3778;DHT22;1904;50.076;8.660;2023-03-02T16:01:11;14.60;1.00
3778;DHT22;1904;50.076;8.660;2023-03-02T16:03:37;14.90;1.00
3778;DHT22;1904;50.076;8.660;2023-03-02T16:06:03;15.10;1.00
3778;DHT22;1904;50.076;8.660;2023-03-02T16:08:29;15.50;1.00
3778;DHT22;1904;50.076;8.660;2023-03-02T16:11:00;15.50;1.00
3778;DHT22;1904;50.076;8.660;2023-03-02T16:13:26;15.70;1.00
3778;DHT22;1904;50.076;8.660;2023-03-02T16:15:52;15.80;1.00
3778;DHT22;1904;50.076;8.660;2023-03-02T16:18:18;15.70;1.00
3778;DHT22;1904;50.076;8.660;2023-03-02T16:20:44;15.50;1.00
3778;DHT22;1904;50.076;8.660;2023-03-02T16:23:10;15.10;1.00
3778;DHT22;1904;50.076;8.660;2023-03-02T16:25:38;14.90;1.00
3778;DHT22;1904;50.076;8.660;2023-03-02T16:28:05;14.60;1.00
3778;DHT22;1904;50.076;8.660;2023-03-02T16:30:32;14.30;1.00
3778;DHT22;1904;50.076;8.660;2023-03-02T16:32:59;13.90;1.00
3778;DHT22;1904;50.076;8.660;2023-03-02T16:35:27;13.70;1.00
3778;DHT22;1904;50.076;8.660;2023-03-02T16:37:53;13.30;1.00
3778;DHT22;1904;50.076;8.660;2023-03-02T16:40:19;13.00;1.00
3778;DHT22;1904;50.076;8.660;2023-03-02T16:42:44;12.80;1.00
3778;DHT22;1904;50.076;8.660;2023-03-02T16:45:11;12.40;1.00
3778;DHT22;1904;50.076;8.660;2023-03-02T16:47:36;12.20;1.00
3778;DHT22;1904;50.076;8.660;2023-03-02T16:50:03;12.00;1.00
3778;DHT22;1904;50.076;8.660;2023-03-02T16:52:29;11.80;1.00
3778;DHT22;1904;50.076;8.660;2023-03-02T16:54:55;11.50;1.00
3778;DHT22;1904;50.076;8.660;2023-03-02T16:57:20;11.30;1.00
3778;DHT22;1904;50.076;8.660;2023-03-02T16:59:46;11.10;1.00
3778;DHT22;1904;50.076;8.660;2023-03-02T17:02:12;11.00;1.00
3778;DHT22;1904;50.076;8.660;2023-03-02T17:04:37;10.80;1.00
3778;DHT22;1904;50.076;8.660;2023-03-02T17:07:04;10.60;1.00
3778;DHT22;1904;50.076;8.660;2023-03-02T17:09:33;10.50;1.00
3778;DHT22;1904;50.076;8.660;2023-03-02T17:11:59;10.40;1.00
3778;DHT22;1904;50.076;8.660;2023-03-02T17:14:25;10.30;1.00
3778;DHT22;1904;50.076;8.660;2023-03-02T17:16:51;10.10;1.00
3778;DHT22;1904;50.076;8.660;2023-03-02T17:19:17;10.00;1.00
3778;DHT22;1904;50.076;8.660;2023-03-02T17:21:43;9.90;1.00
3778;DHT22;1904;50.076;8.660;2023-03-02T17:24:08;9.80;1.00
3778;DHT22;1904;50.076;8.660;2023-03-02T17:26:35;9.60;1.00
3778;DHT22;1904;50.076;8.660;2023-03-02T17:29:00;9.60;1.00
3778;DHT22;1904;50.076;8.660;2023-03-02T17:31:26;9.60;1.00
3778;DHT22;1904;50.076;8.660;2023-03-02T17:33:52;9.50;1.00
3778;DHT22;1904;50.076;8.660;2023-03-02T17:36:19;9.40;1.00
3778;DHT22;1904;50.076;8.660;2023-03-02T17:38:45;9.30;1.00
3778;DHT22;1904;50.076;8.660;2023-03-02T17:41:11;9.20;1.00
3778;DHT22;1904;50.076;8.660;2023-03-02T17:43:38;9.10;1.00
3778;DHT22;1904;50.076;8.660;2023-03-02T17:46:19;9.00;1.00
3778;DHT22;1904;50.076;8.660;2023-03-02T17:48:46;8.90;1.00
3778;DHT22;1904;50.076;8.660;2023-03-02T17:51:13;8.80;1.00
3778;DHT22;1904;50.076;8.660;2023-03-02T17:53:46;8.80;1.00
3778;DHT22;1904;50.076;8.660;2023-03-02T17:56:14;8.80;1.00
3778;DHT22;1904;50.076;8.660;2023-03-02T17:58:44;8.80;1.00
3778;DHT22;1904;50.076;8.660;2023-03-02T18:01:11;8.80;1.00
3778;DHT22;1904;50.076;8.660;2023-03-02T18:03:37;8.60;1.00
3778;DHT22;1904;50.076;8.660;2023-03-02T18:06:03;8.50;1.00
3778;DHT22;1904;50.076;8.660;2023-03-02T18:08:29;8.50;1.00
3778;DHT22;1904;50.076;8.660;2023-03-02T18:10:58;8.40;1.00
3778;DHT22;1904;50.076;8.660;2023-03-02T18:13:23;8.30;1.00
3778;DHT22;1904;50.076;8.660;2023-03-02T18:15:49;8.30;1.00
3778;DHT22;1904;50.076;8.660;2023-03-02T18:18:15;8.20;1.00
3778;DHT22;1904;50.076;8.660;2023-03-02T18:20:40;8.10;1.00
3778;DHT22;1904;50.076;8.660;2023-03-02T18:23:06;8.00;1.00
3778;DHT22;1904;50.076;8.660;2023-03-02T18:25:32;8.00;1.00
3778;DHT22;1904;50.076;8.660;2023-03-02T18:27:58;8.00;1.00
3778;DHT22;1904;50.076;8.660;2023-03-02T18:30:31;7.90;1.00
3778;DHT22;1904;50.076;8.660;2023-03-02T18:33:01;7.80;1.00
3778;DHT22;1904;50.076;8.660;2023-03-02T18:35:37;7.80;1.00
3778;DHT22;1904;50.076;8.660;2023-03-02T18:38:19;7.70;1.00
3778;DHT22;1904;50.076;8.660;2023-03-02T18:44:12;7.80;1.00
3778;DHT22;1904;50.076;8.660;2023-03-02T18:50:01;7.60;1.00
3778;DHT22;1904;50.076;8.660;2023-03-02T18:56:00;7.40;1.00
3778;DHT22;1904;50.076;8.660;2023-03-02T18:58:31;7.40;1.00
3778;DHT22;1904;50.076;8.660;2023-03-02T19:01:13;7.30;1.00
3778;DHT22;1904;50.076;8.660;2023-03-02T19:03:39;7.30;1.00
3778;DHT22;1904;50.076;8.660;2023-03-02T19:06:07;7.20;1.00
3778;DHT22;1904;50.076;8.660;2023-03-02T19:25:42;7.00;1.00
3778;DHT22;1904;50.076;8.660;2023-03-02T19:28:30;6.90;1.00
3778;DHT22;1904;50.076;8.660;2023-03-02T19:34:21;6.70;1.00
3778;DHT22;1904;50.076;8.660;2023-03-02T19:37:18;6.70;1.00
3778;DHT22;1904;50.076;8.660;2023-03-02T19:39:44;6.70;1.00
3778;DHT22;1904;50.076;8.660;2023-03-02T19:42:13;6.70;1.00
3778;DHT22;1904;50.076;8.660;2023-03-02T19:44:55;6.60;1.00
3778;DHT22;1904;50.076;8.660;2023-03-02T19:47:31;6.60;1.00
3778;DHT22;1904;50.076;8.660;2023-03-02T19:50:19;6.70;1.00
3778;DHT22;1904;50.076;8.660;2023-03-02T19:52:55;6.70;1.00
3778;DHT22;1904;50.076;8.660;2023-03-02T19:55:25;6.60;1.00
3778;DHT22;1904;50.076;8.660;2023-03-02T19:58:24;6.50;1.00
3778;DHT22;1904;50.076;8.660;2023-03-02T20:00:52;6.60;1.00
3778;DHT22;1904;50.076;8.660;2023-03-02T20:03:18;6.60;1.00
3778;DHT22;1904;50.076;8.660;2023-03-02T20:06:19;6.50;1.00
3778;DHT22;1904;50.076;8.660;2023-03-02T20:12:13;6.40;1.00
3778;DHT22;1904;50.076;8.660;2023-03-02T20:18:03;6.40;1.00
3778;DHT22;1904;50.076;8.660;2023-03-02T20:24:18;6.20;1.00
3778;DHT22;1904;50.076;8.660;2023-03-02T20:30:11;6.20;1.00
3778;DHT22;1904;50.076;8.660;2023-03-02T20:32:43;6.10;1.00
3778;DHT22;1904;50.076;8.660;2023-03-02T20:35:13;6.10;1.00
3778;DHT22;1904;50.076;8.660;2023-03-02T20:37:40;6.00;1.00
3778;DHT22;1904;50.076;8.660;2023-03-02T20:40:08;6.00;1.00
3778;DHT22;1904;50.076;8.660;2023-03-02T20:42:34;6.00;1.00
3778;DHT22;1904;50.076;8.660;2023-03-02T20:45:02;6.00;1.00
3778;DHT22;1904;50.076;8.660;2023-03-02T20:47:31;6.00;1.00
3778;DHT22;1904;50.076;8.660;2023-03-02T20:49:59;5.90;1.00
3778;DHT22;1904;50.076;8.660;2023-03-02T20:52:31;5.80;1.00
3778;DHT22;1904;50.076;8.660;2023-03-02T20:55:18;5.80;1.00
3778;DHT22;1904;50.076;8.660;2023-03-02T20:58:19;5.70;1.00
3778;DHT22;1904;50.076;8.660;2023-03-02T21:04:06;5.50;1.00
3778;DHT22;1904;50.076;8.660;2023-03-02T21:07:07;5.40;1.00
3778;DHT22;1904;50.076;8.660;2023-03-02T21:09:43;5.30;1.00
3778;DHT22;1904;50.076;8.660;2023-03-02T21:12:09;5.30;1.00
3778;DHT22;1904;50.076;8.660;2023-03-02T21:14:38;5.30;1.00
3778;DHT22;1904;50.076;8.660;2023-03-02T21:17:05;5.40;1.00
3778;DHT22;1904;50.076;8.660;2023-03-02T21:19:31;5.40;1.00
3778;DHT22;1904;50.076;8.660;2023-03-02T21:21:58;5.30;1.00
3778;DHT22;1904;50.076;8.660;2023-03-02T21:24:25;5.30;1.00
3778;DHT22;1904;50.076;8.660;2023-03-02T21:30:19;5.10;1.00
3778;DHT22;1904;50.076;8.660;2023-03-02T21:33:06;5.00;1.00
3778;DHT22;1904;50.076;8.660;2023-03-02T21:42:09;4.90;1.00
3778;DHT22;1904;50.076;8.660;2023-03-02T21:44:36;4.80;1.00
3778;DHT22;1904;50.076;8.660;2023-03-02T21:47:13;4.70;1.00
3778;DHT22;1904;50.076;8.660;2023-03-02T21:49:38;4.70;1.00
3778;DHT22;1904;50.076;8.660;2023-03-02T21:52:07;4.70;1.00
3778;DHT22;1904;50.076;8.660;2023-03-02T21:54:43;4.60;1.00
3778;DHT22;1904;50.076;8.660;2023-03-02T21:57:09;4.60;1.00
3778;DHT22;1904;50.076;8.660;2023-03-02T21:59:43;4.50;1.00
3778;DHT22;1904;50.076;8.660;2023-03-02T22:02:11;4.50;1.00
3778;DHT22;1904;50.076;8.660;2023-03-02T22:04:43;4.40;1.00
3778;DHT22;1904;50.076;8.660;2023-03-02T22:07:13;4.40;1.00
3778;DHT22;1904;50.076;8.660;2023-03-02T22:09:43;4.40;1.00
3778;DHT22;1904;50.076;8.660;2023-03-02T22:15:30;4.50;1.00
3778;DHT22;1904;50.076;8.660;2023-03-02T22:28:30;4.40;1.00
3778;DHT22;1904;50.076;8.660;2023-03-02T22:34:27;4.50;1.00
3778;DHT22;1904;50.076;8.660;2023-03-02T22:43:37;4.40;1.00
3778;DHT22;1904;50.076;8.660;2023-03-02T22:49:26;4.40;1.00
3778;DHT22;1904;50.076;8.660;2023-03-02T22:55:34;4.40;1.00
3778;DHT22;1904;50.076;8.660;2023-03-02T23:04:44;4.30;1.00
3778;DHT22;1904;50.076;8.660;2023-03-02T23:07:25;4.30;1.00
3778;DHT22;1904;50.076;8.660;2023-03-02T23:13:14;4.30;1.00
3778;DHT22;1904;50.076;8.660;2023-03-02T23:15:44;4.30;1.00